createdAt,value
2019-02-10T00:00:54.568Z,68.99
2019-02-10T00:03:26.310Z,68.83
2019-02-10T00:05:57.993Z,68.94
2019-02-10T00:08:30.061Z,69.05
2019-02-10T00:11:01.668Z,69.03
2019-02-10T00:13:37.367Z,68.80
2019-02-10T00:16:20.524Z,68.81
2019-02-10T00:18:54.333Z,68.05
2019-02-10T00:21:25.648Z,68.07
2019-02-10T00:23:57.406Z,68.19
2019-02-10T00:26:28.662Z,68.16
2019-02-10T00:28:59.936Z,68.49
2019-02-10T00:31:31.753Z,68.40
2019-02-10T00:34:03.094Z,68.25
2019-02-10T00:36:34.402Z,68.22
2019-02-10T00:39:10.203Z,68.36
2019-02-10T00:41:41.956Z,68.33
2019-02-10T00:44:13.319Z,68.16
2019-02-10T00:46:44.654Z,68.10
2019-02-10T00:49:16.707Z,68.20
2019-02-10T00:51:48.040Z,68.20
2019-02-10T00:54:19.413Z,68.04
2019-02-10T00:56:51.101Z,68.26
2019-02-10T00:59:23.228Z,68.45
2019-02-10T01:01:56.428Z,68.55
2019-02-10T01:04:28.276Z,68.71
2019-02-10T01:06:59.629Z,68.90
2019-02-10T01:09:31.603Z,68.84
2019-02-10T01:12:03.460Z,68.88
2019-02-10T01:14:34.757Z,69.15
2019-02-10T01:17:06.475Z,69.05
2019-02-10T01:19:38.538Z,69.17
2019-02-10T01:22:10.193Z,69.23
2019-02-10T01:24:42.207Z,69.34
2019-02-10T01:27:13.951Z,69.45
2019-02-10T01:29:46.041Z,69.54
2019-02-10T01:32:18.132Z,69.45
2019-02-10T01:34:49.798Z,69.20
2019-02-10T01:37:22.067Z,69.20
2019-02-10T01:39:54.379Z,69.15
2019-02-10T01:42:26.023Z,69.20
2019-02-10T01:44:58.168Z,69.25
2019-02-10T01:47:30.013Z,69.27
2019-02-10T01:50:02.178Z,69.31
2019-02-10T01:52:35.038Z,69.65
2019-02-10T01:55:08.049Z,69.54
2019-02-10T01:57:39.365Z,69.73
2019-02-10T02:00:13.537Z,69.72
2019-02-10T02:02:44.978Z,69.96
2019-02-10T02:05:16.977Z,69.90
2019-02-10T02:07:48.873Z,69.85
2019-02-10T02:10:20.195Z,69.76
2019-02-10T02:12:51.510Z,69.91
2019-02-10T02:15:23.550Z,69.84
2019-02-10T02:17:55.683Z,69.71
2019-02-10T02:20:27.375Z,69.76
2019-02-10T02:22:59.022Z,69.79
2019-02-10T02:25:30.427Z,69.79
2019-02-10T02:28:01.793Z,69.66
2019-02-10T02:30:35.277Z,69.83
2019-02-10T02:33:07.007Z,69.94
2019-02-10T02:35:39.217Z,69.85
2019-02-10T02:38:11.168Z,69.92
2019-02-10T02:40:42.709Z,69.84
2019-02-10T02:43:14.209Z,70.29
2019-02-10T02:45:46.689Z,70.55
2019-02-10T02:48:20.806Z,70.71
2019-02-10T02:50:52.101Z,70.93
2019-02-10T02:53:23.545Z,70.68
2019-02-10T02:55:55.918Z,70.75
2019-02-10T02:58:28.234Z,71.04
2019-02-10T03:00:59.871Z,71.11
2019-02-10T03:03:31.266Z,71.22
2019-02-10T03:06:03.008Z,71.01
2019-02-10T03:08:34.576Z,71.23
2019-02-10T03:11:08.333Z,71.65
2019-02-10T03:13:40.008Z,71.67
2019-02-10T03:16:11.602Z,71.74
2019-02-10T03:18:43.067Z,71.85
2019-02-10T03:21:14.317Z,71.86
2019-02-10T03:23:47.596Z,72.03
2019-02-10T03:26:18.954Z,72.00
2019-02-10T03:28:50.312Z,71.83
2019-02-10T03:31:22.294Z,72.01
2019-02-10T03:33:54.503Z,72.05
2019-02-10T03:36:26.112Z,72.03
2019-02-10T03:38:58.411Z,72.12
2019-02-10T03:41:30.090Z,72.15
2019-02-10T03:44:06.676Z,72.01
2019-02-10T03:46:39.591Z,72.15
2019-02-10T03:49:13.648Z,72.49
2019-02-10T03:51:46.397Z,71.89
2019-02-10T03:54:18.855Z,71.81
2019-02-10T03:56:51.649Z,71.53
2019-02-10T03:59:24.069Z,71.51
2019-02-10T04:01:55.823Z,71.45
2019-02-10T04:04:27.981Z,71.47
2019-02-10T04:06:59.333Z,71.55
2019-02-10T04:09:30.855Z,71.46
2019-02-10T04:12:02.786Z,71.22
2019-02-10T04:14:34.389Z,71.43
2019-02-10T04:17:06.671Z,71.32
2019-02-10T04:19:38.651Z,71.48
2019-02-10T04:22:09.958Z,71.37
2019-02-10T04:24:41.356Z,71.34
2019-02-10T04:27:12.707Z,71.26
2019-02-10T04:29:44.003Z,71.27
2019-02-10T04:32:15.687Z,71.39
2019-02-10T04:34:49.088Z,71.43
2019-02-10T04:37:20.380Z,71.17
2019-02-10T04:39:51.726Z,71.30
2019-02-10T04:42:24.121Z,71.48
2019-02-10T04:44:56.044Z,71.22
2019-02-10T04:47:27.675Z,71.10
2019-02-10T04:49:59.053Z,71.19
2019-02-10T04:52:30.670Z,71.13
2019-02-10T04:55:02.285Z,70.98
2019-02-10T04:57:34.342Z,70.98
2019-02-10T05:00:06.837Z,71.08
2019-02-10T05:02:39.107Z,70.99
2019-02-10T05:05:11.226Z,70.65
2019-02-10T05:07:42.830Z,70.30
2019-02-10T05:10:15.070Z,70.42
2019-02-10T05:12:46.461Z,71.03
2019-02-10T05:15:18.092Z,71.45
2019-02-10T05:17:50.069Z,71.90
2019-02-10T05:20:21.808Z,72.57
2019-02-10T05:22:53.405Z,72.69
2019-02-10T05:25:25.080Z,73.12
2019-02-10T05:27:57.122Z,73.13
2019-02-10T05:30:28.890Z,73.08
2019-02-10T05:33:00.514Z,73.55
2019-02-10T05:35:32.854Z,73.41
2019-02-10T05:38:04.717Z,73.54
2019-02-10T05:40:36.791Z,74.07
2019-02-10T05:43:08.722Z,74.17
2019-02-10T05:45:42.003Z,74.47
2019-02-10T05:48:13.573Z,74.50
2019-02-10T05:50:45.231Z,74.88
2019-02-10T05:53:16.929Z,75.34
2019-02-10T05:55:48.541Z,76.10
2019-02-10T05:58:20.760Z,76.26
2019-02-10T06:00:52.092Z,76.09
2019-02-10T06:03:23.388Z,76.36
2019-02-10T06:05:54.779Z,76.51
2019-02-10T06:08:26.109Z,76.26
2019-02-10T06:10:57.700Z,76.80
2019-02-10T06:13:29.386Z,77.72
2019-02-10T06:16:00.712Z,78.21
2019-02-10T06:18:32.091Z,78.78
2019-02-10T06:21:03.490Z,78.94
2019-02-10T06:23:35.135Z,79.06
2019-02-10T06:26:06.784Z,79.50
2019-02-10T06:28:38.831Z,79.46
2019-02-10T06:31:10.299Z,79.76
2019-02-10T06:33:41.947Z,79.82
2019-02-10T06:36:14.322Z,80.08
2019-02-10T06:38:47.650Z,79.94
2019-02-10T06:41:19.267Z,80.03
2019-02-10T06:43:51.390Z,80.20
2019-02-10T06:46:24.049Z,80.31
2019-02-10T06:48:55.938Z,80.86
2019-02-10T06:51:27.390Z,80.94
2019-02-10T06:53:58.958Z,81.18
2019-02-10T06:56:30.367Z,81.29
2019-02-10T06:59:02.355Z,81.71
2019-02-10T07:01:44.907Z,82.01
2019-02-10T07:04:31.059Z,82.41
2019-02-10T07:07:02.374Z,82.95
2019-02-10T07:09:33.967Z,82.94
2019-02-10T07:12:52.163Z,82.93
2019-02-10T07:16:16.544Z,83.26
2019-02-10T07:19:42.076Z,83.43
2019-02-10T07:23:27.476Z,83.96
2019-02-10T07:26:09.883Z,84.04
2019-02-10T07:29:36.238Z,84.38
2019-02-10T07:32:24.882Z,84.43
2019-02-10T07:38:12.498Z,84.64
2019-02-10T07:41:23.043Z,85.00
2019-02-10T07:45:06.047Z,85.07
2019-02-10T07:48:35.743Z,85.00
2019-02-10T07:51:43.116Z,85.49
2019-02-10T07:54:45.405Z,85.57
2019-02-10T07:58:18.601Z,85.64
2019-02-10T08:01:32.385Z,85.73
2019-02-10T08:04:43.529Z,85.90
2019-02-10T08:07:43.099Z,86.11
2019-02-10T08:11:20.735Z,86.16
2019-02-10T08:14:39.042Z,86.26
2019-02-10T08:17:51.723Z,86.49
2019-02-10T08:21:24.383Z,86.34
2019-02-10T08:24:44.396Z,86.55
2019-02-10T08:28:06.587Z,86.48
2019-02-10T08:31:14.665Z,86.60
2019-02-10T08:34:50.677Z,86.43
2019-02-10T08:38:02.267Z,86.58
2019-02-10T08:41:17.169Z,86.67
2019-02-10T08:44:33.893Z,86.63
2019-02-10T08:47:52.951Z,86.58
2019-02-10T08:51:13.998Z,86.77
2019-02-10T08:53:47.703Z,86.81
2019-02-10T08:56:19.330Z,86.71
2019-02-10T08:58:50.782Z,86.75
2019-02-10T09:01:22.381Z,86.64
2019-02-10T09:03:53.689Z,86.59
2019-02-10T09:06:25.509Z,86.84
2019-02-10T09:09:02.463Z,86.79
2019-02-10T09:11:29.939Z,86.73
2019-02-10T09:14:01.268Z,86.63
2019-02-10T09:16:32.597Z,86.92
2019-02-10T09:19:03.888Z,86.85
2019-02-10T09:21:36.169Z,86.78
2019-02-10T09:24:07.829Z,87.10
2019-02-10T09:26:39.125Z,86.88
2019-02-10T09:29:11.510Z,87.11
2019-02-10T09:31:43.351Z,86.85
2019-02-10T09:34:15.036Z,86.82
2019-02-10T09:36:46.378Z,86.96
2019-02-10T09:39:18.094Z,86.77
2019-02-10T09:41:49.703Z,86.81
2019-02-10T09:44:22.982Z,86.90
2019-02-10T09:46:54.624Z,87.07
2019-02-10T09:49:26.075Z,87.10
2019-02-10T09:51:58.107Z,87.18
2019-02-10T09:54:29.885Z,87.08
2019-02-10T09:57:01.168Z,87.34
2019-02-10T09:59:32.546Z,87.36
2019-02-10T10:02:03.845Z,87.31
2019-02-10T10:04:35.125Z,87.35
2019-02-10T10:07:06.469Z,87.65
2019-02-10T10:09:38.160Z,87.54
2019-02-10T10:12:09.732Z,87.62
2019-02-10T10:14:41.437Z,87.49
2019-02-10T10:17:13.081Z,87.40
2019-02-10T10:19:44.446Z,87.10
2019-02-10T10:22:16.124Z,87.08
2019-02-10T10:24:50.475Z,87.18
2019-02-10T10:27:20.409Z,86.87
2019-02-10T10:29:52.091Z,86.65
2019-02-10T10:32:23.809Z,86.58
2019-02-10T10:34:55.773Z,86.50
2019-02-10T10:37:27.733Z,86.17
2019-02-10T10:39:59.713Z,86.49
2019-02-10T10:42:32.240Z,86.48
2019-02-10T10:45:03.660Z,85.96
2019-02-10T10:47:35.362Z,85.96
2019-02-10T10:50:07.606Z,86.24
2019-02-10T10:52:43.694Z,86.04
2019-02-10T10:55:18.971Z,85.87
2019-02-10T10:57:53.188Z,85.61
2019-02-10T11:00:25.225Z,85.18
2019-02-10T11:02:57.331Z,85.57
2019-02-10T11:05:30.535Z,85.19
2019-02-10T11:08:02.004Z,85.35
2019-02-10T11:10:33.897Z,85.18
2019-02-10T11:13:05.624Z,84.91
2019-02-10T11:15:37.254Z,85.35
2019-02-10T11:18:08.649Z,84.97
2019-02-10T11:20:40.254Z,84.87
2019-02-10T11:23:12.214Z,84.33
2019-02-10T11:25:44.182Z,83.92
2019-02-10T11:28:16.273Z,82.92
2019-02-10T11:30:48.083Z,82.85
2019-02-10T11:33:19.403Z,82.63
2019-02-10T11:35:53.559Z,81.65
2019-02-10T11:38:25.048Z,81.14
2019-02-10T11:40:56.673Z,81.47
2019-02-10T11:43:28.734Z,81.10
2019-02-10T11:46:01.032Z,80.70
2019-02-10T11:48:33.516Z,80.25
2019-02-10T11:51:05.839Z,80.66
2019-02-10T11:53:37.394Z,79.45
2019-02-10T11:56:09.211Z,78.67
2019-02-10T11:58:41.050Z,78.70
2019-02-10T12:01:12.801Z,78.87
2019-02-10T12:03:44.718Z,78.63
2019-02-10T12:06:16.379Z,77.79
2019-02-10T12:08:48.435Z,78.26
2019-02-10T12:11:20.531Z,77.00
2019-02-10T12:13:52.174Z,77.17
2019-02-10T12:16:24.123Z,76.51
2019-02-10T12:18:55.455Z,76.58
2019-02-10T12:21:26.741Z,75.85
2019-02-10T12:23:58.446Z,75.63
2019-02-10T12:26:29.902Z,75.42
2019-02-10T12:29:01.221Z,74.65
2019-02-10T12:31:32.965Z,74.42
2019-02-10T12:34:04.369Z,74.12
2019-02-10T12:36:36.117Z,73.90
2019-02-10T12:39:09.394Z,74.17
2019-02-10T12:41:40.802Z,74.04
2019-02-10T12:44:12.574Z,73.65
2019-02-10T12:46:46.099Z,73.46
2019-02-10T12:49:18.100Z,73.82
2019-02-10T12:51:49.796Z,73.96
2019-02-10T12:54:21.924Z,73.56
2019-02-10T12:56:54.178Z,72.87
2019-02-10T12:59:25.880Z,71.70
2019-02-10T13:01:58.228Z,72.54
2019-02-10T13:04:29.540Z,73.11
2019-02-10T13:07:01.124Z,73.38
2019-02-10T13:09:32.831Z,73.98
2019-02-10T13:12:04.138Z,74.77
2019-02-10T13:17:25.664Z,76.10
2019-02-10T13:19:58.420Z,77.26
2019-02-10T13:22:30.144Z,77.32
2019-02-10T13:25:02.145Z,78.05
2019-02-10T13:27:34.137Z,78.75
2019-02-10T13:30:07.401Z,79.21
2019-02-10T13:32:39.096Z,79.49
2019-02-10T13:35:10.858Z,79.76
2019-02-10T13:37:42.230Z,80.09
2019-02-10T13:40:17.289Z,80.45
2019-02-10T13:42:48.665Z,80.62
2019-02-10T13:45:20.297Z,80.31
2019-02-10T13:47:52.146Z,80.56
2019-02-10T13:50:23.525Z,80.30
2019-02-10T13:52:54.959Z,80.83
2019-02-10T13:55:26.687Z,81.19
2019-02-10T13:57:58.046Z,80.82
2019-02-10T14:00:29.428Z,81.06
2019-02-10T14:03:00.764Z,80.75
2019-02-10T14:05:32.116Z,81.00
2019-02-10T14:08:04.017Z,80.53
2019-02-10T14:10:35.658Z,80.75
2019-02-10T14:13:08.901Z,81.06
2019-02-10T14:15:40.495Z,81.71
2019-02-10T14:18:12.129Z,81.38
2019-02-10T14:20:43.561Z,81.17
2019-02-10T14:23:16.050Z,81.69
2019-02-10T14:25:47.428Z,80.94
2019-02-10T14:28:19.344Z,81.37
2019-02-10T14:30:51.244Z,81.57
2019-02-10T14:33:22.559Z,81.52
2019-02-10T14:35:54.467Z,81.92
2019-02-10T14:38:26.152Z,81.53
2019-02-10T14:40:58.129Z,81.53
2019-02-10T14:43:29.424Z,81.58
2019-02-10T14:46:01.109Z,81.58
2019-02-10T14:48:32.844Z,81.34
2019-02-10T14:51:04.441Z,81.31
2019-02-10T14:53:36.411Z,80.84
2019-02-10T14:56:07.750Z,79.93
2019-02-10T14:58:43.087Z,80.04
2019-02-10T15:01:12.316Z,79.70
2019-02-10T15:03:43.631Z,79.89
2019-02-10T15:06:14.945Z,79.63
2019-02-10T15:08:46.231Z,79.69
2019-02-10T15:11:17.918Z,79.37
2019-02-10T15:13:49.203Z,78.92
2019-02-10T15:16:20.475Z,78.91
2019-02-10T15:18:51.858Z,78.52
2019-02-10T15:21:23.844Z,79.07
2019-02-10T15:23:55.155Z,78.84
2019-02-10T15:26:26.648Z,78.47
2019-02-10T15:28:58.120Z,78.53
2019-02-10T15:31:29.387Z,78.48
2019-02-10T15:34:00.773Z,77.80
2019-02-10T15:36:32.113Z,78.35
2019-02-10T15:39:03.870Z,78.11
2019-02-10T15:41:35.553Z,77.54
2019-02-10T15:44:06.850Z,77.54
2019-02-10T15:46:38.146Z,77.43
2019-02-10T15:49:09.608Z,77.33
2019-02-10T15:51:41.214Z,77.49
2019-02-10T15:54:12.875Z,77.57
2019-02-10T15:56:44.548Z,77.34
2019-02-10T15:59:15.843Z,77.77
2019-02-10T16:01:47.748Z,77.33
2019-02-10T16:04:19.749Z,77.54
2019-02-10T16:06:51.763Z,77.65
2019-02-10T16:09:23.089Z,77.85
2019-02-10T16:11:54.437Z,77.92
2019-02-10T16:14:27.589Z,78.04
2019-02-10T16:16:58.889Z,77.91
2019-02-10T16:19:30.489Z,78.14
2019-02-10T16:22:02.100Z,78.90
2019-02-10T16:24:33.392Z,79.32
2019-02-10T16:27:04.715Z,79.15
2019-02-10T16:29:36.122Z,79.38
2019-02-10T16:32:08.818Z,79.09
2019-02-10T16:34:40.111Z,79.15
2019-02-10T16:37:11.487Z,79.15
2019-02-10T16:39:42.929Z,78.52
2019-02-10T16:42:14.844Z,77.62
2019-02-10T16:44:46.473Z,76.92
2019-02-10T16:47:18.477Z,76.58
2019-02-10T16:49:49.878Z,76.90
2019-02-10T16:52:22.036Z,76.62
2019-02-10T16:54:53.413Z,76.21
2019-02-10T16:57:24.751Z,75.76
2019-02-10T16:59:56.047Z,75.74
2019-02-10T17:02:27.647Z,75.93
2019-02-10T17:04:58.990Z,75.61
2019-02-10T17:07:30.398Z,75.91
2019-02-10T17:10:01.995Z,75.00
2019-02-10T17:12:34.076Z,75.41
2019-02-10T17:15:05.975Z,75.57
2019-02-10T17:17:37.240Z,74.83
2019-02-10T17:20:09.708Z,75.11
2019-02-10T17:22:41.094Z,74.94
2019-02-10T17:25:14.689Z,75.21
2019-02-10T17:27:46.145Z,75.22
2019-02-10T17:30:17.663Z,75.21
2019-02-10T17:32:48.976Z,75.73
2019-02-10T17:35:23.859Z,75.68
2019-02-10T17:37:55.595Z,75.69
2019-02-10T17:40:33.505Z,75.57
2019-02-10T17:43:05.287Z,75.48
2019-02-10T17:45:36.992Z,75.71
2019-02-10T17:48:09.024Z,75.84
2019-02-10T17:50:40.747Z,75.91
2019-02-10T17:53:12.056Z,75.33
2019-02-10T17:55:43.774Z,75.33
2019-02-10T17:58:15.098Z,75.48
2019-02-10T18:00:48.661Z,75.62
2019-02-10T18:03:19.965Z,75.94
2019-02-10T18:05:51.568Z,76.09
2019-02-10T18:08:23.118Z,75.59
2019-02-10T18:10:54.529Z,75.75
2019-02-10T18:13:28.178Z,75.87
2019-02-10T18:16:24.694Z,75.85
2019-02-10T18:19:21.622Z,76.11
2019-02-10T18:22:17.651Z,76.48
2019-02-10T18:25:06.248Z,78.10
2019-02-10T18:28:02.580Z,78.73
2019-02-10T18:30:50.008Z,79.67
2019-02-10T18:33:28.845Z,79.98
2019-02-10T18:36:26.496Z,79.74
2019-02-10T18:39:06.989Z,79.71
2019-02-10T18:41:58.276Z,79.37
2019-02-10T18:44:40.500Z,79.72
2019-02-10T18:47:48.965Z,80.04
2019-02-10T18:50:48.009Z,81.42
2019-02-10T18:53:50.661Z,81.00
2019-02-10T18:56:46.574Z,81.30
2019-02-10T18:59:35.250Z,81.88
2019-02-10T19:02:14.971Z,82.07
2019-02-10T19:05:03.279Z,82.46
2019-02-10T19:07:56.191Z,81.89
2019-02-10T19:10:51.796Z,81.97
2019-02-10T19:13:41.963Z,81.63
2019-02-10T19:16:21.820Z,81.45
2019-02-10T19:19:18.781Z,81.58
2019-02-10T19:22:19.645Z,81.89
2019-02-10T19:25:01.853Z,82.15
2019-02-10T19:27:45.305Z,82.41
2019-02-10T19:30:39.177Z,83.39
2019-02-10T19:33:36.392Z,83.21
2019-02-10T19:36:27.491Z,84.14
2019-02-10T19:39:27.157Z,84.14
2019-02-10T19:42:16.041Z,84.25
2019-02-10T19:45:06.536Z,84.27
2019-02-10T19:48:01.276Z,84.42
2019-02-10T19:50:52.080Z,84.39
2019-02-10T19:53:37.801Z,84.14
2019-02-10T19:56:23.951Z,83.98
2019-02-10T19:59:06.333Z,84.18
2019-02-10T20:01:53.058Z,83.54
2019-02-10T20:04:40.934Z,83.43
2019-02-10T20:07:31.477Z,83.49
2019-02-10T20:10:25.248Z,82.44
2019-02-10T20:13:27.631Z,81.83
2019-02-10T20:16:24.131Z,82.27
2019-02-10T20:19:17.141Z,81.98
2019-02-10T20:22:16.718Z,81.98
2019-02-10T20:25:17.534Z,81.68
2019-02-10T20:28:06.743Z,82.15
2019-02-10T20:30:53.783Z,81.96
2019-02-10T20:33:44.939Z,81.39
2019-02-10T20:36:38.269Z,81.74
2019-02-10T20:39:15.291Z,81.25
2019-02-10T20:41:55.362Z,81.56
2019-02-10T20:44:51.462Z,81.16
2019-02-10T20:47:45.155Z,81.11
2019-02-10T20:50:42.211Z,80.76
2019-02-10T20:53:39.007Z,80.54
2019-02-10T20:56:29.343Z,78.61
2019-02-10T20:59:15.317Z,77.85
2019-02-10T21:02:08.443Z,76.94
2019-02-10T21:05:01.777Z,76.56
2019-02-10T21:07:57.762Z,76.15
2019-02-10T21:10:46.403Z,76.09
2019-02-10T21:13:30.367Z,75.26
2019-02-10T21:16:29.823Z,75.27
2019-02-10T21:19:25.838Z,75.65
2019-02-10T21:22:05.460Z,76.05
2019-02-10T21:24:49.574Z,75.14
2019-02-10T21:27:45.661Z,74.71
2019-02-10T21:30:36.326Z,74.41
2019-02-10T21:33:22.827Z,75.29
2019-02-10T21:35:58.888Z,75.16
2019-02-10T21:38:49.593Z,75.35
2019-02-10T21:41:31.585Z,75.32
2019-02-10T21:44:15.767Z,75.55
2019-02-10T21:47:06.355Z,75.42
2019-02-10T21:49:38.212Z,75.68
2019-02-10T21:52:09.590Z,76.02
2019-02-10T21:54:42.260Z,76.55
2019-02-10T21:57:13.583Z,77.29
2019-02-10T21:59:44.950Z,77.73
2019-02-10T22:02:16.911Z,78.58
2019-02-10T22:04:48.598Z,78.66
2019-02-10T22:07:19.951Z,78.98
2019-02-10T22:09:51.230Z,79.27
2019-02-10T22:12:23.023Z,78.78
2019-02-10T22:14:54.344Z,78.85
2019-02-10T22:17:25.920Z,78.88
2019-02-10T22:19:57.268Z,79.02
2019-02-10T22:22:28.965Z,79.23
2019-02-10T22:25:01.277Z,79.42
2019-02-10T22:27:33.882Z,79.36
2019-02-10T22:30:08.559Z,79.50
2019-02-10T22:32:40.243Z,79.45
2019-02-10T22:35:11.595Z,79.94
2019-02-10T22:37:42.912Z,80.08
2019-02-10T22:40:14.272Z,80.47
2019-02-10T22:42:46.135Z,80.35
2019-02-10T22:45:18.032Z,80.17
2019-02-10T22:47:50.075Z,80.09
2019-02-10T22:50:22.136Z,80.76
2019-02-10T22:52:54.049Z,81.01
2019-02-10T22:55:25.414Z,80.82
2019-02-10T22:57:56.854Z,80.67
2019-02-10T23:00:50.185Z,80.97
2019-02-10T23:03:21.784Z,81.48
2019-02-10T23:05:53.067Z,81.07
2019-02-10T23:08:24.706Z,81.30
2019-02-10T23:10:56.350Z,81.43
2019-02-10T23:13:27.682Z,81.39
2019-02-10T23:15:58.927Z,81.60
2019-02-10T23:18:30.743Z,81.83
2019-02-10T23:21:03.530Z,81.78
2019-02-10T23:23:34.825Z,81.67
2019-02-10T23:26:06.318Z,81.27
2019-02-10T23:28:37.598Z,81.44
2019-02-10T23:31:09.156Z,81.43
2019-02-10T23:33:40.545Z,81.68
2019-02-10T23:36:12.806Z,82.34
2019-02-10T23:38:44.281Z,82.29
2019-02-10T23:41:15.606Z,82.43
2019-02-10T23:43:47.753Z,82.73
2019-02-10T23:46:19.376Z,82.75
2019-02-10T23:48:51.038Z,83.18
2019-02-10T23:51:22.309Z,83.36
2019-02-10T23:53:53.920Z,83.85
2019-02-10T23:56:25.370Z,84.13
2019-02-10T23:58:56.643Z,84.17
